Airfield :
LOGIN :

Register | Disclaimer

   EN    FR    IT 

 










Legend :    VFR   Marginal VFR   IFR   Intensive IFR   Very Intensive IFR
Visi :
Ceiling :
>= 8 km
>= 3000ft
5 to 8 km
1000 to 3000 ft
1500m to 5 km
500 to 1000 ft
800 to 1500m
200 to 500 ft
< 800m
< 200 ft
Symbols :   Thunderstorms  Fog  Heavy snow  Heavy precipitations  Wind > 20 kt
SIGMETs :     Misc.  Thunderstorms  Icing  Turbulence  Mountain Waves  Volcanic Ashes






- Airport Elevation : 15 ft
- IATA code : BHD


EGAC - George Best Belfast City

CURRENT METAR :
  • 150920Z AUTO 35006KT 320V020 9999 NCD 17/14 Q1003

EXPIRED METARs :
  • 150850Z AUTO 35005KT 320V020 9999 -RA NCD 18/15 Q1003
  • 150820Z AUTO 34006KT 9999 NCD 17/15 Q1003
  • 150750Z AUTO 36005KT 330V040 9999 //////CB 17/15 Q1003
  • 150720Z AUTO 01004KT 330V040 9999 -RA NCD 17/15 Q1003
  • 150650Z AUTO VRB02KT 9999 NCD 18/15 Q1003

TAF TAF EGAC
Valid from the 15 at 09:00 until the 15 at 18:00 UTC


150805Z 1509/1518 34005KT 9999 FEW020 SCT045
TEMPO 1509/1518 7000 SHRA BKN014
PROB30
TEMPO 1509/1515 3000 +SHRA
ATIS : +44 02890 935 124



MET'MAP, your aeronautical weather chart ! - Copyright ORBIFLY December 2007 - Disclaimer

ORBIFLY MET'MAP TEAM :

Programming & Development : Alexandra Zaïnal
Original concept : Baudouin d'Aumeries
Technical & hardware support : Manuel Goepfert
Assistance : Marc-Olivier Méhu




SOURCES & CREDITS :

   NOAA